createdAt,value
2018-12-14T00:00:16.418Z,-0.32
2018-12-14T00:01:16.447Z,-0.32
2018-12-14T00:02:16.718Z,-0.33
2018-12-14T00:03:16.983Z,-0.36
2018-12-14T00:04:16.252Z,-0.35
2018-12-14T00:05:16.516Z,-0.35
2018-12-14T00:06:16.789Z,-0.36
2018-12-14T00:07:17.063Z,-0.41
2018-12-14T00:08:16.324Z,-0.35
2018-12-14T00:09:16.589Z,-0.36
2018-12-14T00:10:16.869Z,-0.35
2018-12-14T00:11:16.923Z,-0.36
2018-12-14T00:12:16.178Z,-0.39
2018-12-14T00:13:16.443Z,-0.36
2018-12-14T00:14:16.706Z,-0.39
2018-12-14T00:15:16.974Z,-0.36
2018-12-14T00:16:16.529Z,-0.36
2018-12-14T00:17:16.799Z,-0.43
2018-12-14T00:18:17.055Z,-0.38
2018-12-14T00:19:16.320Z,-0.38
2018-12-14T00:20:16.588Z,-0.36
2018-12-14T00:21:16.645Z,-0.41
2018-12-14T00:22:16.907Z,-0.38
2018-12-14T00:23:17.176Z,-0.39
2018-12-14T00:24:16.444Z,-0.38
2018-12-14T00:25:16.700Z,-0.42
2018-12-14T00:26:16.964Z,-0.43
2018-12-14T00:27:16.222Z,-0.39
2018-12-14T00:28:16.490Z,-0.39
2018-12-14T00:29:16.756Z,-0.41
2018-12-14T00:30:17.041Z,-0.42
2018-12-14T00:31:17.072Z,-0.41
2018-12-14T00:32:16.338Z,-0.41
2018-12-14T00:33:16.596Z,-0.42
2018-12-14T00:34:16.859Z,-0.41
2018-12-14T00:35:17.132Z,-0.39
2018-12-14T00:36:16.399Z,-0.41
2018-12-14T00:37:16.668Z,-0.39
2018-12-14T00:38:16.930Z,-0.41
2018-12-14T00:39:16.203Z,-0.42
2018-12-14T00:40:16.477Z,-0.42
2018-12-14T00:41:16.552Z,-0.39
2018-12-14T00:42:16.822Z,-0.39
2018-12-14T00:43:17.089Z,-0.43
2018-12-14T00:44:16.348Z,-0.42
2018-12-14T00:45:16.613Z,-0.42
2018-12-14T00:46:16.882Z,-0.41
2018-12-14T00:47:17.157Z,-0.42
2018-12-14T00:48:16.415Z,-0.41
2018-12-14T00:49:16.673Z,-0.42
2018-12-14T00:50:16.945Z,-0.41
2018-12-14T00:51:16.998Z,-0.43
2018-12-14T00:52:16.264Z,-0.43
2018-12-14T00:53:16.531Z,-0.43
2018-12-14T00:54:16.819Z,-0.43
2018-12-14T00:55:17.091Z,-0.45
2018-12-14T00:56:16.350Z,-0.42
2018-12-14T00:57:16.625Z,-0.45
2018-12-14T00:58:16.897Z,-0.45
2018-12-14T00:59:17.162Z,-0.45
2018-12-14T01:00:16.436Z,-0.47
2018-12-14T01:01:16.477Z,-0.41
2018-12-14T01:02:16.735Z,-0.43
2018-12-14T01:03:17.006Z,-0.45
2018-12-14T01:04:16.274Z,-0.42
2018-12-14T01:05:16.545Z,-0.43
2018-12-14T01:06:16.813Z,-0.43
2018-12-14T01:07:17.110Z,-0.45
2018-12-14T01:08:16.361Z,-0.42
2018-12-14T01:09:16.627Z,-0.45
2018-12-14T01:10:16.906Z,-0.45
2018-12-14T01:11:16.937Z,-0.41
2018-12-14T01:12:16.206Z,-0.45
2018-12-14T01:13:16.476Z,-0.46
2018-12-14T01:14:16.746Z,-0.46
2018-12-14T01:15:17.023Z,-0.43
2018-12-14T01:16:16.284Z,-0.45
2018-12-14T01:17:16.559Z,-0.46
2018-12-14T01:18:16.825Z,-0.43
2018-12-14T01:19:17.082Z,-0.46
2018-12-14T01:20:16.363Z,-0.47
2018-12-14T01:21:16.398Z,-0.47
2018-12-14T01:22:16.665Z,-0.46
2018-12-14T01:23:16.925Z,-0.43
2018-12-14T01:24:16.189Z,-0.43
2018-12-14T01:25:16.464Z,-0.46
2018-12-14T01:26:16.729Z,-0.46
2018-12-14T01:27:16.991Z,-0.45
2018-12-14T01:28:16.262Z,-0.45
2018-12-14T01:29:16.521Z,-0.47
2018-12-14T01:30:16.789Z,-0.49
2018-12-14T01:31:16.850Z,-0.49
2018-12-14T01:32:17.122Z,-0.49
2018-12-14T01:33:16.384Z,-0.47
2018-12-14T01:34:16.657Z,-0.49
2018-12-14T01:35:16.923Z,-0.49
2018-12-14T01:36:16.189Z,-0.52
2018-12-14T01:37:16.453Z,-0.50
2018-12-14T01:38:16.714Z,-0.49
2018-12-14T01:39:16.981Z,-0.50
2018-12-14T01:40:16.257Z,-0.50
2018-12-14T01:41:16.297Z,-0.52
2018-12-14T01:42:16.562Z,-0.52
2018-12-14T01:43:16.834Z,-0.53
2018-12-14T01:44:17.102Z,-0.50
2018-12-14T01:45:16.368Z,-0.53
2018-12-14T01:46:16.628Z,-0.54
2018-12-14T01:47:16.889Z,-0.53
2018-12-14T01:48:17.162Z,-0.50
2018-12-14T01:49:16.432Z,-0.50
2018-12-14T01:50:16.702Z,-0.52
2018-12-14T01:51:16.747Z,-0.52
2018-12-14T01:52:17.012Z,-0.56
2018-12-14T01:53:16.285Z,-0.53
2018-12-14T01:54:16.549Z,-0.54
2018-12-14T01:55:16.808Z,-0.54
2018-12-14T01:56:17.074Z,-0.56
2018-12-14T01:57:16.338Z,-0.57
2018-12-14T01:58:16.606Z,-0.54
2018-12-14T01:59:16.886Z,-0.53
2018-12-14T02:00:17.177Z,-0.56
2018-12-14T02:01:16.240Z,-0.56
2018-12-14T02:02:16.513Z,-0.57
2018-12-14T02:03:16.783Z,-0.56
2018-12-14T02:04:17.040Z,-0.57
2018-12-14T02:05:16.303Z,-0.60
2018-12-14T02:06:16.559Z,-0.60
2018-12-14T02:07:16.821Z,-0.57
2018-12-14T02:08:17.088Z,-0.60
2018-12-14T02:09:16.357Z,-0.60
2018-12-14T02:10:16.632Z,-0.61
2018-12-14T02:11:16.652Z,-0.60
2018-12-14T02:12:16.920Z,-0.63
2018-12-14T02:13:16.191Z,-0.61
2018-12-14T02:14:16.453Z,-0.61
2018-12-14T02:15:16.725Z,-0.63
2018-12-14T02:16:16.981Z,-0.61
2018-12-14T02:17:16.249Z,-0.64
2018-12-14T02:18:16.508Z,-0.60
2018-12-14T02:19:16.768Z,-0.61
2018-12-14T02:20:17.033Z,-0.61
2018-12-14T02:21:17.066Z,-0.61
2018-12-14T02:22:16.337Z,-0.61
2018-12-14T02:23:16.601Z,-0.61
2018-12-14T02:24:16.860Z,-0.61
2018-12-14T02:25:17.136Z,-0.63
2018-12-14T02:26:16.396Z,-0.63
2018-12-14T02:27:16.647Z,-0.61
2018-12-14T02:28:16.912Z,-0.64
2018-12-14T02:29:16.183Z,-0.64
2018-12-14T02:30:16.458Z,-0.64
2018-12-14T02:31:16.508Z,-0.61
2018-12-14T02:32:16.776Z,-0.66
2018-12-14T02:33:17.068Z,-0.63
2018-12-14T02:34:16.355Z,-0.67
2018-12-14T02:35:16.637Z,-0.67
2018-12-14T02:36:16.898Z,-0.67
2018-12-14T02:37:17.158Z,-0.67
2018-12-14T02:38:16.419Z,-0.64
2018-12-14T02:39:16.690Z,-0.66
2018-12-14T02:40:16.970Z,-0.67
2018-12-14T02:41:17.024Z,-0.69
2018-12-14T02:42:19.203Z,-0.70
2018-12-14T02:43:16.829Z,-0.67
2018-12-14T02:44:17.229Z,-0.69
2018-12-14T02:45:16.511Z,-0.70
2018-12-14T02:46:16.772Z,-0.67
2018-12-14T02:47:17.036Z,-0.69
2018-12-14T02:48:16.304Z,-0.67
2018-12-14T02:49:16.567Z,-0.70
2018-12-14T02:50:16.227Z,-0.70
2018-12-14T02:51:16.284Z,-0.69
2018-12-14T02:52:16.552Z,-0.69
2018-12-14T02:53:16.817Z,-0.70
2018-12-14T02:54:17.344Z,-0.67
2018-12-14T02:55:16.629Z,-0.70
2018-12-14T02:56:16.897Z,-0.67
2018-12-14T02:57:17.158Z,-0.69
2018-12-14T02:58:16.438Z,-0.69
2018-12-14T02:59:16.700Z,-0.70
2018-12-14T03:00:16.978Z,-0.70
2018-12-14T03:01:17.015Z,-0.70
2018-12-14T03:02:16.284Z,-0.69
2018-12-14T03:03:16.555Z,-0.71
2018-12-14T03:04:16.836Z,-0.71
2018-12-14T03:05:17.098Z,-0.71
2018-12-14T03:06:16.375Z,-0.67
2018-12-14T03:07:16.639Z,-0.70
2018-12-14T03:08:16.919Z,-0.70
2018-12-14T03:09:16.201Z,-0.69
2018-12-14T03:10:16.504Z,-0.70
2018-12-14T03:11:16.519Z,-0.69
2018-12-14T03:12:16.796Z,-0.69
2018-12-14T03:13:17.065Z,-0.71
2018-12-14T03:14:16.348Z,-0.70
2018-12-14T03:15:16.612Z,-0.71
2018-12-14T03:16:16.886Z,-0.70
2018-12-14T03:17:17.141Z,-0.69
2018-12-14T03:18:16.409Z,-0.69
2018-12-14T03:19:16.676Z,-0.71
2018-12-14T03:20:16.950Z,-0.71
2018-12-14T03:21:16.986Z,-0.71
2018-12-14T03:22:16.251Z,-0.71
2018-12-14T03:23:16.517Z,-0.70
2018-12-14T03:24:16.791Z,-0.74
2018-12-14T03:25:17.341Z,-0.74
2018-12-14T03:26:16.598Z,-0.73
2018-12-14T03:27:16.872Z,-0.74
2018-12-14T03:28:17.138Z,-0.76
2018-12-14T03:29:16.420Z,-0.74
2018-12-14T03:30:16.687Z,-0.74
2018-12-14T03:31:16.754Z,-0.71
2018-12-14T03:32:17.041Z,-0.74
2018-12-14T03:33:16.320Z,-0.74
2018-12-14T03:34:16.585Z,-0.74
2018-12-14T03:35:16.865Z,-0.74
2018-12-14T03:36:17.136Z,-0.74
2018-12-14T03:37:16.401Z,-0.73
2018-12-14T03:38:16.669Z,-0.74
2018-12-14T03:39:16.933Z,-0.73
2018-12-14T03:40:16.196Z,-0.77
2018-12-14T03:41:16.260Z,-0.74
2018-12-14T03:42:16.528Z,-0.76
2018-12-14T03:43:16.793Z,-0.76
2018-12-14T03:44:17.067Z,-0.77
2018-12-14T03:45:16.343Z,-0.76
2018-12-14T03:46:16.617Z,-0.76
2018-12-14T03:47:16.887Z,-0.77
2018-12-14T03:48:17.158Z,-0.77
2018-12-14T03:49:16.429Z,-0.77
2018-12-14T03:50:16.701Z,-0.73
2018-12-14T03:51:16.745Z,-0.76
2018-12-14T03:52:17.005Z,-0.76
2018-12-14T03:53:16.275Z,-0.74
2018-12-14T03:54:16.551Z,-0.77
2018-12-14T03:55:16.822Z,-0.74
2018-12-14T03:56:17.089Z,-0.74
2018-12-14T03:57:16.357Z,-0.76
2018-12-14T03:58:16.627Z,-0.76
2018-12-14T03:59:16.900Z,-0.76
2018-12-14T04:00:17.193Z,-0.76
2018-12-14T04:01:16.223Z,-0.76
2018-12-14T04:02:16.492Z,-0.73
2018-12-14T04:03:16.761Z,-0.74
2018-12-14T04:04:17.027Z,-0.76
2018-12-14T04:05:16.298Z,-0.74
2018-12-14T04:06:16.585Z,-0.74
2018-12-14T04:07:16.855Z,-0.74
2018-12-14T04:08:17.123Z,-0.76
2018-12-14T04:09:16.394Z,-0.76
2018-12-14T04:10:16.667Z,-0.74
2018-12-14T04:11:16.709Z,-0.73
2018-12-14T04:12:16.978Z,-0.76
2018-12-14T04:13:16.259Z,-0.76
2018-12-14T04:14:16.530Z,-0.76
2018-12-14T04:15:16.795Z,-0.76
2018-12-14T04:16:17.329Z,-0.77
2018-12-14T04:17:16.589Z,-0.77
2018-12-14T04:18:16.857Z,-0.77
2018-12-14T04:19:17.124Z,-0.78
2018-12-14T04:20:16.396Z,-0.76
2018-12-14T04:21:16.444Z,-0.78
2018-12-14T04:22:16.723Z,-0.77
2018-12-14T04:23:16.993Z,-0.77
2018-12-14T04:24:16.262Z,-0.78
2018-12-14T04:25:16.537Z,-0.78
2018-12-14T04:26:16.803Z,-0.78
2018-12-14T04:27:17.063Z,-0.77
2018-12-14T04:28:16.383Z,-0.76
2018-12-14T04:29:16.654Z,-0.78
2018-12-14T04:30:16.949Z,-0.78
2018-12-14T04:31:16.975Z,-0.76
2018-12-14T04:32:16.245Z,-0.78
2018-12-14T04:33:16.514Z,-0.77
2018-12-14T04:34:16.784Z,-0.80
2018-12-14T04:35:17.043Z,-0.78
2018-12-14T04:36:16.311Z,-0.80
2018-12-14T04:37:16.573Z,-0.78
2018-12-14T04:38:16.836Z,-0.80
2018-12-14T04:39:17.100Z,-0.80
2018-12-14T04:40:16.374Z,-0.80
2018-12-14T04:41:16.397Z,-0.80
2018-12-14T04:42:16.667Z,-0.80
2018-12-14T04:43:16.939Z,-0.77
2018-12-14T04:44:16.221Z,-0.80
2018-12-14T04:45:16.513Z,-0.77
2018-12-14T04:46:16.783Z,-0.78
2018-12-14T04:47:17.074Z,-0.81
2018-12-14T04:48:16.346Z,-0.80
2018-12-14T04:49:16.619Z,-0.80
2018-12-14T04:50:16.898Z,-0.80
2018-12-14T04:51:16.937Z,-0.81
2018-12-14T04:52:16.213Z,-0.81
2018-12-14T04:53:16.497Z,-0.82
2018-12-14T04:54:16.755Z,-0.84
2018-12-14T04:55:17.017Z,-0.81
2018-12-14T04:56:16.274Z,-0.82
2018-12-14T04:57:16.535Z,-0.85
2018-12-14T04:58:16.798Z,-0.84
2018-12-14T04:59:17.072Z,-0.82
2018-12-14T05:00:16.344Z,-0.82
2018-12-14T05:01:16.389Z,-0.82
2018-12-14T05:02:16.662Z,-0.85
2018-12-14T05:03:16.984Z,-0.82
2018-12-14T05:04:16.325Z,-0.82
2018-12-14T05:05:16.583Z,-0.84
2018-12-14T05:06:16.849Z,-0.82
2018-12-14T05:07:17.398Z,-0.85
2018-12-14T05:08:16.680Z,-0.82
2018-12-14T05:09:16.947Z,-0.82
2018-12-14T05:10:16.223Z,-0.82
2018-12-14T05:11:16.266Z,-0.82
2018-12-14T05:12:16.534Z,-0.85
2018-12-14T05:13:16.799Z,-0.91
2018-12-14T05:14:17.065Z,-0.91
2018-12-14T05:15:16.348Z,-0.88
2018-12-14T05:16:16.619Z,-0.88
2018-12-14T05:17:16.882Z,-0.88
2018-12-14T05:18:17.153Z,-0.91
2018-12-14T05:19:16.411Z,-0.92
2018-12-14T05:20:16.682Z,-0.91
2018-12-14T05:21:16.733Z,-0.88
2018-12-14T05:22:17.001Z,-0.91
2018-12-14T05:23:16.265Z,-0.91
2018-12-14T05:24:16.535Z,-0.91
2018-12-14T05:25:16.812Z,-0.91
2018-12-14T05:26:17.082Z,-0.90
2018-12-14T05:27:16.352Z,-0.91
2018-12-14T05:28:16.619Z,-0.92
2018-12-14T05:29:16.881Z,-0.92
2018-12-14T05:30:17.160Z,-0.90
2018-12-14T05:31:16.214Z,-0.90
2018-12-14T05:32:16.485Z,-0.90
2018-12-14T05:33:16.744Z,-0.90
2018-12-14T05:34:17.013Z,-0.91
2018-12-14T05:35:16.272Z,-0.92
2018-12-14T05:36:16.544Z,-0.92
2018-12-14T05:37:16.814Z,-0.95
2018-12-14T05:38:17.088Z,-0.97
2018-12-14T05:39:16.344Z,-0.97
2018-12-14T05:40:16.613Z,-0.97
2018-12-14T05:41:16.669Z,-0.97
2018-12-14T05:42:16.937Z,-0.97
2018-12-14T05:43:16.199Z,-0.98
2018-12-14T05:44:16.462Z,-1.02
2018-12-14T05:45:16.722Z,-1.01
2018-12-14T05:46:16.984Z,-1.01
2018-12-14T05:47:16.238Z,-1.04
2018-12-14T05:48:16.496Z,-1.05
2018-12-14T05:49:16.766Z,-1.04
2018-12-14T05:50:17.069Z,-1.04
2018-12-14T05:51:17.078Z,-1.04
2018-12-14T05:52:16.342Z,-1.04
2018-12-14T05:53:16.609Z,-1.08
2018-12-14T05:54:16.884Z,-1.07
2018-12-14T05:55:17.161Z,-1.07
2018-12-14T05:56:16.432Z,-1.07
2018-12-14T05:57:16.691Z,-1.05
2018-12-14T05:58:16.956Z,-1.12
2018-12-14T05:59:16.218Z,-1.09
2018-12-14T06:00:16.502Z,-1.09
2018-12-14T06:01:16.557Z,-1.11
2018-12-14T06:02:16.826Z,-1.11
2018-12-14T06:03:17.099Z,-1.11
2018-12-14T06:04:16.365Z,-1.11
2018-12-14T06:05:16.636Z,-1.15
2018-12-14T06:06:16.895Z,-1.17
2018-12-14T06:07:17.149Z,-1.17
2018-12-14T06:08:16.416Z,-1.18
2018-12-14T06:09:16.693Z,-1.15
2018-12-14T06:10:16.988Z,-1.21
2018-12-14T06:11:17.022Z,-1.22
2018-12-14T06:12:16.287Z,-1.21
2018-12-14T06:13:16.824Z,-1.22
2018-12-14T06:14:17.088Z,-1.26
2018-12-14T06:15:16.356Z,-1.28
2018-12-14T06:16:16.625Z,-1.28
2018-12-14T06:17:16.894Z,-1.28
2018-12-14T06:18:17.185Z,-1.26
2018-12-14T06:19:16.452Z,-1.29
2018-12-14T06:20:16.726Z,-1.33
2018-12-14T06:21:16.778Z,-1.32
2018-12-14T06:22:17.052Z,-1.33
2018-12-14T06:23:16.322Z,-1.36
2018-12-14T06:24:16.913Z,-1.36
2018-12-14T06:25:16.176Z,-1.38
2018-12-14T06:26:16.444Z,-1.38
2018-12-14T06:27:16.706Z,-1.38
2018-12-14T06:28:16.967Z,-1.40
2018-12-14T06:29:16.228Z,-1.45
2018-12-14T06:30:16.518Z,-1.43
2018-12-14T06:31:16.572Z,-1.43
2018-12-14T06:32:16.838Z,-1.45
2018-12-14T06:33:17.101Z,-1.43
2018-12-14T06:34:16.360Z,-1.46
2018-12-14T06:35:16.651Z,-1.49
2018-12-14T06:36:16.950Z,-1.49
2018-12-14T06:37:16.230Z,-1.46
2018-12-14T06:38:16.499Z,-1.50
2018-12-14T06:39:16.757Z,-1.55
2018-12-14T06:40:17.022Z,-1.55
2018-12-14T06:41:17.075Z,-1.57
2018-12-14T06:42:16.345Z,-1.60
2018-12-14T06:43:16.614Z,-1.57
2018-12-14T06:44:16.884Z,-1.60
2018-12-14T06:45:17.185Z,-1.59
2018-12-14T06:46:16.515Z,-1.57
2018-12-14T06:47:16.770Z,-1.59
2018-12-14T06:48:17.038Z,-1.59
2018-12-14T06:49:16.306Z,-1.56
2018-12-14T06:50:16.578Z,-1.56
2018-12-14T06:51:16.618Z,-1.59
2018-12-14T06:52:16.884Z,-1.60
2018-12-14T06:53:17.145Z,-1.63
2018-12-14T06:54:16.407Z,-1.63
2018-12-14T06:55:16.672Z,-1.66
2018-12-14T06:56:16.937Z,-1.66
2018-12-14T06:57:16.194Z,-1.60
2018-12-14T06:58:16.462Z,-1.60
2018-12-14T06:59:16.728Z,-1.64
2018-12-14T07:00:17.016Z,-1.62
2018-12-14T07:01:17.071Z,-1.64
2018-12-14T07:02:16.343Z,-1.66
2018-12-14T07:03:16.613Z,-1.67
2018-12-14T07:04:16.872Z,-1.68
2018-12-14T07:05:17.157Z,-1.68
2018-12-14T07:06:16.424Z,-1.73
2018-12-14T07:07:16.677Z,-1.68
2018-12-14T07:08:16.943Z,-1.67
2018-12-14T07:09:16.201Z,-1.66
2018-12-14T07:10:16.506Z,-1.68
2018-12-14T07:11:16.519Z,-1.66
2018-12-14T07:12:16.785Z,-1.66
2018-12-14T07:13:21.783Z,-1.70
2018-12-14T07:14:16.478Z,-1.67
2018-12-14T07:15:16.749Z,-1.73
2018-12-14T07:16:17.013Z,-1.71
2018-12-14T07:17:16.264Z,-1.77
2018-12-14T07:18:16.544Z,-1.74
2018-12-14T07:19:16.813Z,-1.78
2018-12-14T07:20:17.089Z,-1.81
2018-12-14T07:21:17.122Z,-1.83
2018-12-14T07:22:16.392Z,-1.76
2018-12-14T07:23:16.664Z,-1.81
2018-12-14T07:24:16.918Z,-1.81
2018-12-14T07:25:16.188Z,-1.85
2018-12-14T07:26:16.450Z,-1.83
2018-12-14T07:27:16.764Z,-1.84
2018-12-14T07:28:17.049Z,-1.84
2018-12-14T07:29:16.315Z,-1.84
2018-12-14T07:30:16.588Z,-1.81
2018-12-14T07:31:16.659Z,-1.88
2018-12-14T07:32:16.920Z,-1.85
2018-12-14T07:33:16.169Z,-1.83
2018-12-14T07:34:16.428Z,-1.83
2018-12-14T07:35:16.709Z,-1.87
2018-12-14T07:36:16.972Z,-1.87
2018-12-14T07:37:16.241Z,-1.84
2018-12-14T07:38:16.504Z,-1.87
2018-12-14T07:39:16.789Z,-1.87
2018-12-14T07:40:17.064Z,-1.90
2018-12-14T07:41:17.116Z,-1.85
2018-12-14T07:42:16.390Z,-1.87
2018-12-14T07:43:16.651Z,-1.90
2018-12-14T07:44:16.954Z,-1.84
2018-12-14T07:45:16.267Z,-1.84
2018-12-14T07:46:16.537Z,-1.80
2018-12-14T07:47:16.808Z,-1.78
2018-12-14T07:48:17.074Z,-1.77
2018-12-14T07:49:16.332Z,-1.74
2018-12-14T07:50:16.614Z,-1.74
2018-12-14T07:51:16.654Z,-1.73
2018-12-14T07:52:16.921Z,-1.70
2018-12-14T07:53:16.197Z,-1.70
2018-12-14T07:54:16.456Z,-1.67
2018-12-14T07:55:16.714Z,-1.64
2018-12-14T07:56:16.978Z,-1.70
2018-12-14T07:57:16.240Z,-1.70
2018-12-14T07:58:16.509Z,-1.70
2018-12-14T07:59:16.775Z,-1.74
2018-12-14T08:00:17.061Z,-1.68
2018-12-14T08:01:17.119Z,-1.68
2018-12-14T08:02:16.392Z,-1.68
2018-12-14T08:03:16.659Z,-1.67
2018-12-14T08:04:16.940Z,-1.64
2018-12-14T08:05:16.205Z,-1.66
2018-12-14T08:06:16.485Z,-1.67
2018-12-14T08:07:16.742Z,-1.67
2018-12-14T08:08:17.004Z,-1.67
2018-12-14T08:09:16.270Z,-1.66
2018-12-14T08:10:16.543Z,-1.59
2018-12-14T08:11:16.573Z,-1.59
2018-12-14T08:12:16.853Z,-1.63
2018-12-14T08:13:17.112Z,-1.60
2018-12-14T08:14:16.372Z,-1.57
2018-12-14T08:15:16.641Z,-1.53
2018-12-14T08:16:16.903Z,-1.53
2018-12-14T08:17:16.184Z,-1.55
2018-12-14T08:18:16.443Z,-1.47
2018-12-14T08:19:16.715Z,-1.50
2018-12-14T08:20:17.306Z,-1.50
2018-12-14T08:21:17.028Z,-1.46
2018-12-14T08:22:16.290Z,-1.47
2018-12-14T08:23:16.556Z,-1.47
2018-12-14T08:24:16.815Z,-1.42
2018-12-14T08:25:17.073Z,-1.38
2018-12-14T08:26:16.340Z,-1.39
2018-12-14T08:27:16.603Z,-1.39
2018-12-14T08:28:16.864Z,-1.33
2018-12-14T08:29:17.128Z,-1.33
2018-12-14T08:30:16.412Z,-1.31
2018-12-14T08:31:16.476Z,-1.28
2018-12-14T08:32:16.745Z,-1.24
2018-12-14T08:33:17.011Z,-1.24
2018-12-14T08:34:16.277Z,-1.24
2018-12-14T08:35:16.547Z,-1.21
2018-12-14T08:36:16.808Z,-1.19
2018-12-14T08:37:17.086Z,-1.18
2018-12-14T08:38:16.349Z,-1.12
2018-12-14T08:39:16.607Z,-1.12
2018-12-14T08:40:16.876Z,-1.11
2018-12-14T08:41:16.917Z,-1.09
2018-12-14T08:42:16.183Z,-1.07
2018-12-14T08:43:16.452Z,-1.01
2018-12-14T08:44:16.730Z,-1.02
2018-12-14T08:45:17.002Z,-0.98
2018-12-14T08:46:16.260Z,-0.97
2018-12-14T08:47:16.529Z,-0.97
2018-12-14T08:48:16.784Z,-0.91
2018-12-14T08:49:17.048Z,-0.88
2018-12-14T08:50:16.321Z,-0.84
2018-12-14T08:51:16.375Z,-0.80
2018-12-14T08:52:16.640Z,-0.82
2018-12-14T08:53:16.910Z,-0.84
2018-12-14T08:54:16.179Z,-0.78
2018-12-14T08:55:16.455Z,-0.74
2018-12-14T08:56:16.723Z,-0.77
2018-12-14T08:57:16.999Z,-0.77
2018-12-14T08:58:16.261Z,-0.76
2018-12-14T08:59:16.540Z,-0.77
2018-12-14T09:00:16.833Z,-0.81
2018-12-14T09:01:16.865Z,-0.80
2018-12-14T09:02:17.124Z,-0.76
2018-12-14T09:03:16.403Z,-0.74
2018-12-14T09:04:16.673Z,-0.67
2018-12-14T09:05:16.940Z,-0.74
2018-12-14T09:06:16.209Z,-0.69
2018-12-14T09:07:16.489Z,-0.73
2018-12-14T09:08:16.752Z,-0.77
2018-12-14T09:09:17.032Z,-0.76
2018-12-14T09:10:16.296Z,-0.71
2018-12-14T09:11:16.346Z,-0.77
2018-12-14T09:12:16.606Z,-0.74
2018-12-14T09:13:16.880Z,-0.67
2018-12-14T09:14:17.146Z,-0.67
2018-12-14T09:15:16.420Z,-0.67
2018-12-14T09:16:16.696Z,-0.64
2018-12-14T09:17:16.956Z,-0.61
2018-12-14T09:18:16.228Z,-0.61
2018-12-14T09:19:16.510Z,-0.66
2018-12-14T09:20:16.805Z,-0.67
2018-12-14T09:21:16.834Z,-0.66
2018-12-14T09:22:17.098Z,-0.64
2018-12-14T09:23:16.362Z,-0.63
2018-12-14T09:24:16.628Z,-0.73
2018-12-14T09:25:16.900Z,-0.71
2018-12-14T09:26:16.160Z,-0.66
2018-12-14T09:27:16.419Z,-0.66
2018-12-14T09:28:16.686Z,-0.66
2018-12-14T09:29:16.948Z,-0.60
2018-12-14T09:30:16.218Z,-0.66
2018-12-14T09:31:16.280Z,-0.64
2018-12-14T09:32:16.547Z,-0.69
2018-12-14T09:33:16.859Z,-0.63
2018-12-14T09:34:17.142Z,-0.52
2018-12-14T09:35:16.408Z,-0.46
2018-12-14T09:36:16.673Z,-0.52
2018-12-14T09:37:16.930Z,-0.50
2018-12-14T09:38:16.196Z,-0.50
2018-12-14T09:39:16.467Z,-0.57
2018-12-14T09:40:16.757Z,-0.54
2018-12-14T09:41:16.795Z,-0.54
2018-12-14T09:42:17.057Z,-0.63
2018-12-14T09:43:16.327Z,-0.59
2018-12-14T09:44:16.600Z,-0.60
2018-12-14T09:45:16.867Z,-0.52
2018-12-14T09:46:17.122Z,-0.49
2018-12-14T09:47:16.386Z,-0.46
2018-12-14T09:48:16.648Z,-0.42
2018-12-14T09:49:16.909Z,-0.43
2018-12-14T09:50:16.174Z,-0.38
2018-12-14T09:51:16.210Z,-0.36
2018-12-14T09:52:16.476Z,-0.39
2018-12-14T09:53:16.737Z,-0.39
2018-12-14T09:54:16.999Z,-0.35
2018-12-14T09:55:16.295Z,-0.32
2018-12-14T09:56:16.568Z,-0.38
2018-12-14T09:57:16.830Z,-0.36
2018-12-14T09:58:17.092Z,-0.26
2018-12-14T09:59:16.355Z,-0.26
2018-12-14T10:00:16.643Z,-0.23
2018-12-14T10:01:16.675Z,-0.25
2018-12-14T10:02:16.941Z,-0.28
2018-12-14T10:03:16.202Z,-0.29
2018-12-14T10:04:16.484Z,-0.26
2018-12-14T10:05:16.752Z,-0.25
2018-12-14T10:06:17.019Z,-0.25
2018-12-14T10:07:16.288Z,-0.28
2018-12-14T10:08:16.544Z,-0.32
2018-12-14T10:09:16.808Z,-0.26
2018-12-14T10:10:17.104Z,-0.28
2018-12-14T10:11:17.139Z,-0.29
2018-12-14T10:12:16.404Z,-0.22
2018-12-14T10:13:16.657Z,-0.21
2018-12-14T10:14:16.930Z,-0.11
2018-12-14T10:15:16.193Z,-0.11
2018-12-14T10:16:16.469Z,-0.15
2018-12-14T10:17:16.737Z,-0.14
2018-12-14T10:18:17.006Z,-0.10
2018-12-14T10:19:16.272Z,-0.08
2018-12-14T10:20:16.542Z,0.00
2018-12-14T10:21:16.581Z,-0.11
2018-12-14T10:22:16.847Z,-0.07
2018-12-14T10:23:17.110Z,-0.05
2018-12-14T10:24:16.377Z,-0.10
2018-12-14T10:25:16.646Z,-0.03
2018-12-14T10:26:16.909Z,0.00
2018-12-14T10:27:16.175Z,0.05
2018-12-14T10:28:16.451Z,0.06
2018-12-14T10:29:16.719Z,-0.01
2018-12-14T10:30:17.000Z,0.06
2018-12-14T10:31:17.046Z,0.00
2018-12-14T10:32:16.358Z,-0.01
2018-12-14T10:33:16.638Z,-0.03
2018-12-14T10:34:16.907Z,0.08
2018-12-14T10:35:16.171Z,0.09
2018-12-14T10:36:16.441Z,0.05
2018-12-14T10:37:16.712Z,-0.03
2018-12-14T10:38:16.975Z,0.00
2018-12-14T10:39:16.234Z,-0.03
2018-12-14T10:40:16.514Z,-0.01
2018-12-14T10:41:16.574Z,0.13
2018-12-14T10:42:16.843Z,0.16
2018-12-14T10:43:17.110Z,0.12
2018-12-14T10:44:16.381Z,0.12
2018-12-14T10:45:16.642Z,0.13
2018-12-14T10:46:16.901Z,0.22
2018-12-14T10:47:16.169Z,0.27
2018-12-14T10:48:16.436Z,0.27
2018-12-14T10:49:16.706Z,0.33
2018-12-14T10:50:16.981Z,0.30
2018-12-14T10:51:17.017Z,0.22
2018-12-14T10:52:16.288Z,0.19
2018-12-14T10:53:16.547Z,0.17
2018-12-14T10:54:16.813Z,0.19
2018-12-14T10:55:17.079Z,0.19
2018-12-14T10:56:16.341Z,0.20
2018-12-14T10:57:16.613Z,0.24
2018-12-14T10:58:16.876Z,0.32
2018-12-14T10:59:17.161Z,0.38
2018-12-14T11:00:16.443Z,0.44
2018-12-14T11:01:16.497Z,0.43
2018-12-14T11:02:16.757Z,0.37
2018-12-14T11:03:17.030Z,0.30
2018-12-14T11:04:16.292Z,0.23
2018-12-14T11:05:16.575Z,0.23
2018-12-14T11:06:16.836Z,0.32
2018-12-14T11:07:17.116Z,0.30
2018-12-14T11:08:16.399Z,0.22
2018-12-14T11:09:16.672Z,0.19
2018-12-14T11:10:16.941Z,0.22
2018-12-14T11:11:16.988Z,0.26
2018-12-14T11:12:16.248Z,0.27
2018-12-14T11:13:16.515Z,0.27
2018-12-14T11:14:16.783Z,0.23
2018-12-14T11:15:17.051Z,0.28
2018-12-14T11:16:16.332Z,0.32
2018-12-14T11:17:16.587Z,0.34
2018-12-14T11:18:16.850Z,0.27
2018-12-14T11:19:17.121Z,0.21
2018-12-14T11:20:16.387Z,0.08
2018-12-14T11:21:17.453Z,0.06
2018-12-14T11:22:16.801Z,0.12
2018-12-14T11:23:17.059Z,0.17
2018-12-14T11:24:16.319Z,0.24
2018-12-14T11:25:16.597Z,0.29
2018-12-14T11:26:16.870Z,0.26
2018-12-14T11:27:17.150Z,0.29
2018-12-14T11:28:16.431Z,0.27
2018-12-14T11:29:16.700Z,0.24
2018-12-14T11:30:16.981Z,0.23
2018-12-14T11:31:17.012Z,0.23
2018-12-14T11:32:16.282Z,0.30
2018-12-14T11:33:16.569Z,0.29
2018-12-14T11:34:16.845Z,0.24
2018-12-14T11:35:17.117Z,0.20
2018-12-14T11:36:16.377Z,0.29
2018-12-14T11:37:16.638Z,0.27
2018-12-14T11:38:16.904Z,0.32
2018-12-14T11:39:16.171Z,0.29
2018-12-14T11:40:16.441Z,0.27
2018-12-14T11:41:18.506Z,0.20
2018-12-14T11:42:17.038Z,0.22
2018-12-14T11:43:16.321Z,0.22
2018-12-14T11:44:20.376Z,0.24
2018-12-14T11:45:16.428Z,0.24
2018-12-14T11:46:16.750Z,0.32
2018-12-14T11:47:18.227Z,0.32
2018-12-14T11:48:16.676Z,0.24
2018-12-14T11:49:16.949Z,0.27
2018-12-14T11:50:16.238Z,0.22
2018-12-14T11:51:16.284Z,0.22
2018-12-14T11:52:16.549Z,0.26
2018-12-14T11:53:16.819Z,0.23
2018-12-14T11:54:17.529Z,0.29
2018-12-14T11:55:16.885Z,0.27
2018-12-14T11:56:17.153Z,0.26
2018-12-14T11:57:16.425Z,0.27
2018-12-14T11:58:16.700Z,0.24
2018-12-14T11:59:16.962Z,0.24
2018-12-14T12:00:16.233Z,0.22
2018-12-14T12:01:16.279Z,0.19
2018-12-14T12:02:16.544Z,0.15
2018-12-14T12:03:16.812Z,0.16
2018-12-14T12:04:17.073Z,0.23
2018-12-14T12:05:16.335Z,0.23
2018-12-14T12:06:16.602Z,0.23
2018-12-14T12:07:16.866Z,0.23
2018-12-14T12:08:17.135Z,0.22
2018-12-14T12:09:16.397Z,0.27
2018-12-14T12:10:16.672Z,0.27
2018-12-14T12:11:16.721Z,0.19
2018-12-14T12:12:16.978Z,0.15
2018-12-14T12:13:16.252Z,0.12
2018-12-14T12:14:16.512Z,0.15
2018-12-14T12:15:16.795Z,0.13
2018-12-14T12:16:17.068Z,0.16
2018-12-14T12:17:16.335Z,0.20
2018-12-14T12:18:16.631Z,0.21
2018-12-14T12:19:16.908Z,0.19
2018-12-14T12:20:16.176Z,0.20
2018-12-14T12:21:16.220Z,0.23
2018-12-14T12:22:16.488Z,0.26
2018-12-14T12:23:16.751Z,0.24
2018-12-14T12:24:17.019Z,0.23
2018-12-14T12:25:16.756Z,0.19
2018-12-14T12:26:17.025Z,0.15
2018-12-14T12:27:16.302Z,0.17
2018-12-14T12:28:16.565Z,0.19
2018-12-14T12:29:16.827Z,0.17
2018-12-14T12:30:17.100Z,0.20
2018-12-14T12:31:17.156Z,0.19
2018-12-14T12:32:16.430Z,0.19
2018-12-14T12:33:16.694Z,0.23
2018-12-14T12:34:16.960Z,0.17
2018-12-14T12:35:16.229Z,0.19
2018-12-14T12:36:16.503Z,0.19
2018-12-14T12:37:16.776Z,0.17
2018-12-14T12:38:17.032Z,0.17
2018-12-14T12:39:16.304Z,0.20
2018-12-14T12:40:16.564Z,0.16
2018-12-14T12:41:16.611Z,0.13
2018-12-14T12:42:16.876Z,0.15
2018-12-14T12:43:17.140Z,0.16
2018-12-14T12:44:16.406Z,0.12
2018-12-14T12:45:16.689Z,0.15
2018-12-14T12:46:16.949Z,0.15
2018-12-14T12:47:16.212Z,0.16
2018-12-14T12:48:16.477Z,0.17
2018-12-14T12:49:16.743Z,0.16
2018-12-14T12:50:17.012Z,0.15
2018-12-14T12:51:17.080Z,0.20
2018-12-14T12:52:16.360Z,0.17
2018-12-14T12:53:16.627Z,0.16
2018-12-14T12:54:16.893Z,0.15
2018-12-14T12:55:17.159Z,0.15
2018-12-14T12:56:16.418Z,0.13
2018-12-14T12:57:16.691Z,0.16